sensor_id;sensor_type;location;lat;lon;timestamp;pressure;altitude;pressure_sealevel;temperature;humidity
57904;BME280;43720;47.462;19.030;2022-09-13T04:01:51;100248.44;;;10.23;84.93
57904;BME280;43720;47.462;19.030;2022-09-13T04:04:54;100248.34;;;10.17;85.00
57904;BME280;43720;47.462;19.030;2022-09-13T04:07:57;100250.16;;;10.21;84.98
57904;BME280;43720;47.462;19.030;2022-09-13T04:11:00;100256.12;;;10.14;85.42
57904;BME280;43720;47.462;19.030;2022-09-13T04:14:02;100259.66;;;10.16;84.96
57904;BME280;43720;47.462;19.030;2022-09-13T04:17:05;100256.12;;;10.11;85.16
57904;BME280;43720;47.462;19.030;2022-09-13T04:20:07;100249.88;;;10.01;85.68
57904;BME280;43720;47.462;19.030;2022-09-13T04:23:09;100248.25;;;10.10;85.38
57904;BME280;43720;47.462;19.030;2022-09-13T04:26:12;100253.47;;;10.08;85.49
57904;BME280;43720;47.462;19.030;2022-09-13T04:29:14;100245.06;;;10.29;83.60
57904;BME280;43720;47.462;19.030;2022-09-13T04:32:16;100243.13;;;10.17;84.44
57904;BME280;43720;47.462;19.030;2022-09-13T04:35:18;100246.84;;;10.33;83.42
57904;BME280;43720;47.462;19.030;2022-09-13T04:38:20;100254.50;;;10.19;84.11
57904;BME280;43720;47.462;19.030;2022-09-13T04:41:23;100257.78;;;10.06;84.99
57904;BME280;43720;47.462;19.030;2022-09-13T04:44:25;100256.81;;;9.99;85.57
57904;BME280;43720;47.462;19.030;2022-09-13T04:47:28;100255.16;;;10.04;85.12
57904;BME280;43720;47.462;19.030;2022-09-13T04:50:30;100253.34;;;10.02;85.42
57904;BME280;43720;47.462;19.030;2022-09-13T04:53:32;100247.25;;;10.00;84.39
57904;BME280;43720;47.462;19.030;2022-09-13T04:56:34;100253.22;;;9.93;85.45
57904;BME280;43720;47.462;19.030;2022-09-13T04:59:37;100257.66;;;9.97;85.47
57904;BME280;43720;47.462;19.030;2022-09-13T05:02:39;100254.34;;;10.09;85.49
57904;BME280;43720;47.462;19.030;2022-09-13T05:05:41;100251.72;;;10.09;85.10
57904;BME280;43720;47.462;19.030;2022-09-13T05:08:44;100253.56;;;10.16;84.90
57904;BME280;43720;47.462;19.030;2022-09-13T05:11:46;100261.47;;;10.19;84.84
57904;BME280;43720;47.462;19.030;2022-09-13T05:14:48;100262.44;;;10.25;84.47
57904;BME280;43720;47.462;19.030;2022-09-13T05:17:50;100257.34;;;10.35;83.57
57904;BME280;43720;47.462;19.030;2022-09-13T05:20:54;100260.16;;;10.50;83.60
57904;BME280;43720;47.462;19.030;2022-09-13T05:23:57;100262.00;;;10.57;83.31
57904;BME280;43720;47.462;19.030;2022-09-13T05:26:59;100262.00;;;10.59;83.82
57904;BME280;43720;47.462;19.030;2022-09-13T05:30:02;100263.84;;;10.67;82.55
57904;BME280;43720;47.462;19.030;2022-09-13T05:33:04;100271.88;;;10.83;82.09
57904;BME280;43720;47.462;19.030;2022-09-13T05:36:07;100256.22;;;10.86;81.85
57904;BME280;43720;47.462;19.030;2022-09-13T05:39:14;100264.16;;;10.95;81.61
57904;BME280;43720;47.462;19.030;2022-09-13T05:42:38;100258.25;;;11.13;81.24
57904;BME280;43720;47.462;19.030;2022-09-13T05:45:40;100264.44;;;11.21;80.96
57904;BME280;43720;47.462;19.030;2022-09-13T05:48:43;100254.97;;;11.32;80.12
57904;BME280;43720;47.462;19.030;2022-09-13T05:51:45;100255.97;;;11.49;79.53
57904;BME280;43720;47.462;19.030;2022-09-13T05:54:47;100256.06;;;11.60;79.16
57904;BME280;43720;47.462;19.030;2022-09-13T05:57:49;100252.69;;;11.72;80.41
57904;BME280;43720;47.462;19.030;2022-09-13T06:00:55;100263.25;;;11.81;78.94
57904;BME280;43720;47.462;19.030;2022-09-13T06:03:58;100270.38;;;11.99;78.99
57904;BME280;43720;47.462;19.030;2022-09-13T06:07:00;100266.06;;;12.07;78.60
57904;BME280;43720;47.462;19.030;2022-09-13T06:10:02;100271.37;;;12.16;78.37
57904;BME280;43720;47.462;19.030;2022-09-13T06:13:05;100267.06;;;12.26;78.00
57904;BME280;43720;47.462;19.030;2022-09-13T06:16:10;100271.47;;;12.35;78.13
57904;BME280;43720;47.462;19.030;2022-09-13T06:19:12;100266.28;;;12.50;76.87
57904;BME280;43720;47.462;19.030;2022-09-13T06:22:14;100267.19;;;12.58;77.16
57904;BME280;43720;47.462;19.030;2022-09-13T06:25:16;100269.03;;;12.75;76.23
57904;BME280;43720;47.462;19.030;2022-09-13T06:28:19;100262.97;;;12.89;76.21
57904;BME280;43720;47.462;19.030;2022-09-13T06:31:24;100267.41;;;13.06;75.12
57904;BME280;43720;47.462;19.030;2022-09-13T06:34:27;100262.19;;;13.24;74.93
57904;BME280;43720;47.462;19.030;2022-09-13T06:37:32;100260.47;;;13.46;74.81
57904;BME280;43720;47.462;19.030;2022-09-13T06:40:34;100260.50;;;13.55;74.15
57904;BME280;43720;47.462;19.030;2022-09-13T06:43:37;100262.25;;;13.65;74.38
57904;BME280;43720;47.462;19.030;2022-09-13T06:46:39;100271.00;;;13.74;74.70
57904;BME280;43720;47.462;19.030;2022-09-13T06:49:41;100268.38;;;13.92;74.47
57904;BME280;43720;47.462;19.030;2022-09-13T06:52:44;100263.94;;;14.12;72.30
57904;BME280;43720;47.462;19.030;2022-09-13T06:55:46;100266.53;;;14.34;70.77
57904;BME280;43720;47.462;19.030;2022-09-13T06:58:50;100256.84;;;14.43;68.64
57904;BME280;43720;47.462;19.030;2022-09-13T07:01:53;100263.87;;;14.57;65.98
57904;BME280;43720;47.462;19.030;2022-09-13T07:04:55;100267.31;;;14.73;67.77
57904;BME280;43720;47.462;19.030;2022-09-13T07:07:57;100267.25;;;14.88;65.51
57904;BME280;43720;47.462;19.030;2022-09-13T07:10:59;100261.88;;;15.08;65.94
57904;BME280;43720;47.462;19.030;2022-09-13T07:14:02;100264.41;;;15.26;63.26
57904;BME280;43720;47.462;19.030;2022-09-13T07:17:04;100264.28;;;15.41;61.63
57904;BME280;43720;47.462;19.030;2022-09-13T07:20:07;100269.47;;;15.54;61.98
57904;BME280;43720;47.462;19.030;2022-09-13T07:23:09;100269.41;;;15.66;61.01
57904;BME280;43720;47.462;19.030;2022-09-13T07:26:16;100269.31;;;15.75;61.54
57904;BME280;43720;47.462;19.030;2022-09-13T07:29:20;100271.84;;;15.89;61.20
57904;BME280;43720;47.462;19.030;2022-09-13T07:32:24;100264.69;;;15.99;61.30
57904;BME280;43720;47.462;19.030;2022-09-13T07:35:27;100268.06;;;16.14;58.78
57904;BME280;43720;47.462;19.030;2022-09-13T07:38:29;100266.16;;;16.30;57.67
57904;BME280;43720;47.462;19.030;2022-09-13T07:41:32;100272.16;;;16.43;57.91
57904;BME280;43720;47.462;19.030;2022-09-13T07:44:34;100263.22;;;16.56;57.74
57904;BME280;43720;47.462;19.030;2022-09-13T07:47:37;100264.75;;;16.76;56.20
57904;BME280;43720;47.462;19.030;2022-09-13T07:50:39;100263.87;;;16.78;56.42
57904;BME280;43720;47.462;19.030;2022-09-13T07:53:43;100266.22;;;16.98;53.86
57904;BME280;43720;47.462;19.030;2022-09-13T07:56:45;100269.72;;;17.02;54.99
57904;BME280;43720;47.462;19.030;2022-09-13T07:59:51;100269.53;;;17.16;54.96
57904;BME280;43720;47.462;19.030;2022-09-13T08:02:53;100269.31;;;17.31;55.39
57904;BME280;43720;47.462;19.030;2022-09-13T08:05:55;100268.47;;;17.27;55.65
57904;BME280;43720;47.462;19.030;2022-09-13T08:08:57;100261.31;;;17.35;54.76
57904;BME280;43720;47.462;19.030;2022-09-13T08:12:00;100264.63;;;17.48;56.76
57904;BME280;43720;47.462;19.030;2022-09-13T08:15:02;100270.41;;;17.72;55.43
57904;BME280;43720;47.462;19.030;2022-09-13T08:18:05;100272.94;;;17.81;55.81
57904;BME280;43720;47.462;19.030;2022-09-13T08:21:07;100269.38;;;17.85;54.37
57904;BME280;43720;47.462;19.030;2022-09-13T08:24:15;100267.09;;;18.12;54.77
57904;BME280;43720;47.462;19.030;2022-09-13T08:27:18;100268.59;;;18.28;52.94
57904;BME280;43720;47.462;19.030;2022-09-13T08:30:20;100266.09;;;18.19;53.11
57904;BME280;43720;47.462;19.030;2022-09-13T08:33:22;100264.13;;;18.30;52.84
57904;BME280;43720;47.462;19.030;2022-09-13T08:36:26;100263.16;;;18.34;52.33
57904;BME280;43720;47.462;19.030;2022-09-13T08:39:29;100252.41;;;18.43;52.55
57904;BME280;43720;47.462;19.030;2022-09-13T08:42:49;100259.28;;;18.52;52.55
57904;BME280;43720;47.462;19.030;2022-09-13T08:46:01;100259.12;;;18.60;52.13
57904;BME280;43720;47.462;19.030;2022-09-13T08:49:45;100256.44;;;18.61;52.58
57904;BME280;43720;47.462;19.030;2022-09-13T08:56:34;100258.00;;;18.74;52.26
57904;BME280;43720;47.462;19.030;2022-09-13T08:59:58;100259.66;;;18.78;50.51
57904;BME280;43720;47.462;19.030;2022-09-13T09:03:26;100253.28;;;18.87;49.65
57904;BME280;43720;47.462;19.030;2022-09-13T09:06:30;100258.53;;;18.90;49.42
57904;BME280;43720;47.462;19.030;2022-09-13T09:09:40;100254.25;;;18.83;50.04
57904;BME280;43720;47.462;19.030;2022-09-13T09:12:48;100253.19;;;18.92;49.69
57904;BME280;43720;47.462;19.030;2022-09-13T09:15:57;100248.56;;;19.01;49.36
57904;BME280;43720;47.462;19.030;2022-09-13T09:19:09;100249.91;;;19.19;50.39
57904;BME280;43720;47.462;19.030;2022-09-13T09:22:19;100238.03;;;19.36;48.91
57904;BME280;43720;47.462;19.030;2022-09-13T09:25:24;100235.31;;;19.39;47.51
57904;BME280;43720;47.462;19.030;2022-09-13T09:28:27;100230.69;;;19.47;47.42
57904;BME280;43720;47.462;19.030;2022-09-13T09:36:05;100224.19;;;19.62;48.01
57904;BME280;43720;47.462;19.030;2022-09-13T09:39:13;100215.12;;;19.70;46.42
57904;BME280;43720;47.462;19.030;2022-09-13T09:42:25;100208.81;;;19.76;46.95
57904;BME280;43720;47.462;19.030;2022-09-13T09:45:32;100205.09;;;19.83;46.97
57904;BME280;43720;47.462;19.030;2022-09-13T09:48:42;100202.22;;;19.91;47.06
57904;BME280;43720;47.462;19.030;2022-09-13T09:51:45;100209.78;;;20.06;47.72
57904;BME280;43720;47.462;19.030;2022-09-13T09:54:49;100206.28;;;20.04;46.50
57904;BME280;43720;47.462;19.030;2022-09-13T09:58:09;100197.28;;;20.10;45.65
57904;BME280;43720;47.462;19.030;2022-09-13T10:01:33;100200.50;;;20.21;46.72
57904;BME280;43720;47.462;19.030;2022-09-13T10:04:36;100183.69;;;20.22;47.89
57904;BME280;43720;47.462;19.030;2022-09-13T10:07:39;100174.62;;;20.29;46.78
57904;BME280;43720;47.462;19.030;2022-09-13T10:10:43;100176.84;;;20.44;45.27
57904;BME280;43720;47.462;19.030;2022-09-13T10:14:00;100167.25;;;20.39;45.60
57904;BME280;43720;47.462;19.030;2022-09-13T10:17:27;100170.41;;;20.53;45.60
57904;BME280;43720;47.462;19.030;2022-09-13T10:20:30;100166.91;;;20.51;44.35
57904;BME280;43720;47.462;19.030;2022-09-13T10:23:34;100166.66;;;20.60;44.88
57904;BME280;43720;47.462;19.030;2022-09-13T10:26:36;100164.50;;;20.42;43.37
57904;BME280;43720;47.462;19.030;2022-09-13T10:29:38;100158.94;;;20.51;44.23
57904;BME280;43720;47.462;19.030;2022-09-13T10:32:44;100155.91;;;20.34;45.65
57904;BME280;43720;47.462;19.030;2022-09-13T10:35:59;100152.72;;;20.52;45.23
57904;BME280;43720;47.462;19.030;2022-09-13T10:39:05;100149.66;;;20.66;45.96
57904;BME280;43720;47.462;19.030;2022-09-13T10:42:09;100149.34;;;20.76;44.99
57904;BME280;43720;47.462;19.030;2022-09-13T10:45:20;100139.72;;;21.00;44.90
57904;BME280;43720;47.462;19.030;2022-09-13T10:48:27;100141.87;;;21.16;43.72
57904;BME280;43720;47.462;19.030;2022-09-13T10:51:33;100152.94;;;21.30;44.12
57904;BME280;43720;47.462;19.030;2022-09-13T10:54:38;100147.69;;;21.27;42.88
57904;BME280;43720;47.462;19.030;2022-09-13T10:57:40;100153.44;;;21.15;43.69
57904;BME280;43720;47.462;19.030;2022-09-13T11:07:36;100134.97;;;20.82;44.73
57904;BME280;43720;47.462;19.030;2022-09-13T11:20:39;100134.25;;;21.32;43.06
57904;BME280;43720;47.462;19.030;2022-09-13T11:31:41;100122.25;;;21.46;42.88
57904;BME280;43720;47.462;19.030;2022-09-13T11:35:23;100118.41;;;21.55;41.29
57904;BME280;43720;47.462;19.030;2022-09-13T11:38:47;100113.59;;;21.41;41.93
57904;BME280;43720;47.462;19.030;2022-09-13T11:42:03;100098.16;;;21.51;41.86
57904;BME280;43720;47.462;19.030;2022-09-13T11:55:16;100083.72;;;21.58;40.04
57904;BME280;43720;47.462;19.030;2022-09-13T11:58:34;100086.00;;;21.69;41.16
57904;BME280;43720;47.462;19.030;2022-09-13T12:01:44;100089.00;;;21.83;40.20
57904;BME280;43720;47.462;19.030;2022-09-13T12:04:58;100090.63;;;21.87;41.39
57904;BME280;43720;47.462;19.030;2022-09-13T12:08:31;100075.84;;;22.04;40.84
57904;BME280;43720;47.462;19.030;2022-09-13T12:11:42;100080.34;;;22.02;38.72
57904;BME280;43720;47.462;19.030;2022-09-13T12:14:52;100082.81;;;22.08;39.34
57904;BME280;43720;47.462;19.030;2022-09-13T12:18:27;100080.75;;;22.16;39.67
57904;BME280;43720;47.462;19.030;2022-09-13T12:21:38;100076.19;;;22.19;39.62
57904;BME280;43720;47.462;19.030;2022-09-13T12:24:45;100082.94;;;22.28;39.32
57904;BME280;43720;47.462;19.030;2022-09-13T12:27:55;100067.81;;;22.29;39.88
57904;BME280;43720;47.462;19.030;2022-09-13T12:31:09;100073.97;;;22.31;38.51
57904;BME280;43720;47.462;19.030;2022-09-13T12:34:22;100062.78;;;22.21;39.17
57904;BME280;43720;47.462;19.030;2022-09-13T12:48:06;100058.69;;;21.87;39.64
57904;BME280;43720;47.462;19.030;2022-09-13T13:01:48;100054.56;;;21.80;41.03
57904;BME280;43720;47.462;19.030;2022-09-13T13:04:53;100050.72;;;21.87;41.55
57904;BME280;43720;47.462;19.030;2022-09-13T13:08:00;100062.56;;;21.79;41.45
57904;BME280;43720;47.462;19.030;2022-09-13T13:14:05;100048.16;;;21.61;41.11
57904;BME280;43720;47.462;19.030;2022-09-13T13:17:33;100046.41;;;21.60;42.67
57904;BME280;43720;47.462;19.030;2022-09-13T13:27:39;100035.19;;;21.52;43.05
57904;BME280;43720;47.462;19.030;2022-09-13T13:30:51;100034.69;;;21.40;42.92
57904;BME280;43720;47.462;19.030;2022-09-13T13:34:01;100034.88;;;21.61;42.31
57904;BME280;43720;47.462;19.030;2022-09-13T13:37:25;100025.00;;;21.39;42.19
57904;BME280;43720;47.462;19.030;2022-09-13T13:40:29;100042.47;;;21.46;42.79
57904;BME280;43720;47.462;19.030;2022-09-13T13:43:33;100030.50;;;21.58;42.47
57904;BME280;43720;47.462;19.030;2022-09-13T13:46:36;100025.84;;;21.65;42.80
57904;BME280;43720;47.462;19.030;2022-09-13T13:56:06;100019.19;;;22.00;41.68
57904;BME280;43720;47.462;19.030;2022-09-13T13:59:14;100014.44;;;22.08;41.25
57904;BME280;43720;47.462;19.030;2022-09-13T14:02:20;100019.78;;;22.08;41.49
57904;BME280;43720;47.462;19.030;2022-09-13T14:05:26;100020.53;;;22.12;42.23
57904;BME280;43720;47.462;19.030;2022-09-13T14:09:01;100015.72;;;22.21;41.20
57904;BME280;43720;47.462;19.030;2022-09-13T14:12:15;100003.44;;;21.94;41.37
57904;BME280;43720;47.462;19.030;2022-09-13T14:15:28;99999.56;;;22.03;41.97
57904;BME280;43720;47.462;19.030;2022-09-13T14:18:43;100006.69;;;22.02;43.41
57904;BME280;43720;47.462;19.030;2022-09-13T14:28:24;100001.34;;;22.02;42.26
57904;BME280;43720;47.462;19.030;2022-09-13T14:31:26;99987.72;;;22.11;42.58
57904;BME280;43720;47.462;19.030;2022-09-13T14:37:36;99978.63;;;22.17;42.01
57904;BME280;43720;47.462;19.030;2022-09-13T14:40:38;99977.06;;;22.11;41.44
57904;BME280;43720;47.462;19.030;2022-09-13T14:43:42;99981.06;;;22.00;41.22
57904;BME280;43720;47.462;19.030;2022-09-13T14:46:49;99983.09;;;21.93;42.41
57904;BME280;43720;47.462;19.030;2022-09-13T14:50:02;99975.75;;;22.00;42.85
57904;BME280;43720;47.462;19.030;2022-09-13T14:53:09;99962.06;;;22.09;42.49
57904;BME280;43720;47.462;19.030;2022-09-13T14:56:17;99961.19;;;22.08;42.68
